Time;durP1;ratioP1;P1;durP2;ratioP2;P2;SDS_P1;SDS_P2;PMS_P1;PMS_P2;Temp;Humidity;BMP_temperature;BMP_pressure;BME280_temperature;BME280_humidity;BME280_pressure;Samples;Min_cycle;Max_cycle;Signal;HPM_P1;HPM_P2
2022/05/13 00:08:09;;;;;;;4.30;1.27;;;11.00;99.90;;;;;;5618567;23;20370;-78
2022/05/13 00:10:35;;;;;;;4.25;1.42;;;10.90;99.90;;;;;;5030503;28;20033;-78
2022/05/13 00:13:01;;;;;;;2.88;0.88;;;10.80;99.90;;;;;;5028623;28;20037;-78
2022/05/13 00:15:29;;;;;;;4.82;1.25;;;10.70;99.90;;;;;;5029694;28;20493;-80
2022/05/13 00:17:55;;;;;;;4.30;0.88;;;10.60;99.90;;;;;;5023311;28;20014;-81
2022/05/13 00:20:22;;;;;;;2.50;0.82;;;10.50;99.90;;;;;;4997190;28;20032;-80
2022/05/13 00:22:52;;;;;;;4.97;1.48;;;10.60;99.90;;;;;;5013485;28;20030;-80
2022/05/13 00:25:23;;;;;;;3.58;0.95;;;10.50;99.90;;;;;;5011739;28;20153;-81
2022/05/13 00:27:49;;;;;;;0.80;0.50;;;10.30;99.90;;;;;;5011667;28;20374;-81
2022/05/13 00:30:15;;;;;;;3.10;1.02;;;10.20;99.90;;;;;;5011646;28;20263;-80
2022/05/13 00:32:41;;;;;;;6.38;1.17;;;10.10;99.90;;;;;;5011505;28;20022;-80
2022/05/13 00:35:08;;;;;;;6.35;1.42;;;10.00;99.90;;;;;;4993822;28;20033;-80
2022/05/13 00:37:34;;;;;;;6.13;1.05;;;9.90;99.90;;;;;;5011417;28;20644;-80
2022/05/13 00:40:02;;;;;;;2.35;0.70;;;9.80;99.90;;;;;;5011284;28;20022;-80
2022/05/13 00:42:28;;;;;;;4.38;1.38;;;9.70;99.90;;;;;;4993512;28;20040;-81
2022/05/13 00:44:57;;;;;;;2.65;0.65;;;9.60;99.90;;;;;;5011440;28;20625;-80
2022/05/13 00:47:22;;;;;;;2.15;0.80;;;9.60;99.90;;;;;;5011241;28;20033;-82
2022/05/13 00:49:48;;;;;;;2.25;0.82;;;9.60;99.90;;;;;;5011733;28;20026;-83
2022/05/13 00:52:15;;;;;;;1.58;0.75;;;9.60;99.90;;;;;;5004540;28;20080;-84
2022/05/13 00:54:42;;;;;;;6.13;1.08;;;9.50;99.90;;;;;;4993604;28;20045;-84
2022/05/13 00:57:11;;;;;;;2.22;0.90;;;9.40;99.90;;;;;;4993693;28;20080;-83
2022/05/13 00:59:39;;;;;;;1.23;0.90;;;9.30;99.90;;;;;;4993090;28;20031;-84
2022/05/13 01:02:06;;;;;;;0.65;0.50;;;9.30;99.90;;;;;;4993395;28;20028;-85
2022/05/13 01:04:35;;;;;;;4.25;1.20;;;9.30;99.90;;;;;;4994020;28;20390;-85
2022/05/13 02:09:26;;;;;;;4.32;1.02;;;8.50;99.90;;;;;;5080546;23;20057;-83
2022/05/13 02:11:52;;;;;;;1.95;1.20;;;8.40;99.90;;;;;;4956770;28;20081;-81
2022/05/13 02:14:19;;;;;;;1.77;1.00;;;8.30;99.90;;;;;;4956683;28;20125;-81
2022/05/13 02:16:44;;;;;;;2.00;0.95;;;8.30;99.90;;;;;;4974263;28;20030;-81
2022/05/13 02:19:11;;;;;;;2.75;1.15;;;8.30;99.90;;;;;;4956045;28;20035;-81
2022/05/13 02:21:37;;;;;;;5.40;1.70;;;8.30;99.90;;;;;;4973162;28;20027;-81
2022/05/13 02:24:04;;;;;;;3.65;1.00;;;8.30;99.90;;;;;;4956253;28;20046;-82
2022/05/13 02:26:30;;;;;;;0.82;0.75;;;8.20;99.90;;;;;;4973041;28;20034;-82
2022/05/13 02:29:01;;;;;;;3.65;1.38;;;8.20;99.90;;;;;;4955550;28;20022;-82
2022/05/13 02:31:27;;;;;;;2.22;1.08;;;8.10;99.90;;;;;;4956187;28;20468;-81
2022/05/13 02:33:53;;;;;;;4.68;1.20;;;8.20;99.90;;;;;;4955463;28;20030;-82
2022/05/13 02:36:19;;;;;;;1.33;0.70;;;8.20;99.90;;;;;;4973032;28;20035;-81
2022/05/13 02:38:45;;;;;;;5.78;1.05;;;8.20;99.90;;;;;;4955946;28;20031;-81
2022/05/13 02:41:11;;;;;;;2.60;0.68;;;8.20;99.90;;;;;;4962451;28;20033;-80
2022/05/13 02:43:50;;;;;;;4.38;1.20;;;8.30;99.90;;;;;;4972809;28;20077;-80
2022/05/13 02:46:19;;;;;;;3.10;1.33;;;8.40;99.90;;;;;;4972691;28;20386;-79
2022/05/13 02:48:45;;;;;;;1.17;1.08;;;8.50;99.90;;;;;;4972998;28;20023;-79
2022/05/13 02:51:11;;;;;;;4.30;1.02;;;8.60;99.90;;;;;;4955072;28;20082;-79
2022/05/13 02:53:37;;;;;;;1.38;0.85;;;8.80;99.90;;;;;;4972385;28;20033;-80
2022/05/13 02:56:03;;;;;;;1.60;0.70;;;8.90;99.90;;;;;;4972562;28;20086;-80
2022/05/13 02:58:29;;;;;;;4.05;1.27;;;8.90;99.90;;;;;;4972462;28;20063;-78
2022/05/13 03:00:55;;;;;;;1.17;1.00;;;9.00;99.90;;;;;;4945031;28;20135;-79
2022/05/13 03:03:21;;;;;;;3.65;0.90;;;9.10;99.90;;;;;;4972663;28;20048;-79
2022/05/13 03:05:46;;;;;;;2.83;1.30;;;9.20;99.90;;;;;;4972489;28;20023;-79
2022/05/13 04:38:51;;;;;;;3.13;0.93;;;9.00;99.90;;;;;;5420485;22;20050;-81
2022/05/13 04:44:04;;;;;;;4.05;0.90;;;9.00;99.90;;;;;;4972745;28;20029;-82
2022/05/13 04:46:31;;;;;;;6.30;1.25;;;9.00;99.90;;;;;;4974932;28;20019;-81
2022/05/13 04:48:57;;;;;;;1.10;0.85;;;9.20;99.90;;;;;;4958336;28;20058;-81
2022/05/13 04:51:23;;;;;;;4.45;1.08;;;9.30;99.90;;;;;;4961884;28;20022;-84
2022/05/13 04:53:51;;;;;;;2.72;0.80;;;9.30;99.90;;;;;;4957307;28;20023;-85
2022/05/13 04:56:19;;;;;;;2.22;0.90;;;9.30;99.90;;;;;;4957758;28;20027;-81
2022/05/13 04:58:45;;;;;;;5.88;0.93;;;9.40;99.90;;;;;;4975137;28;20029;-83
2022/05/13 05:01:12;;;;;;;1.60;1.00;;;9.30;99.90;;;;;;4974875;28;20063;-79
2022/05/13 05:03:40;;;;;;;3.60;1.00;;;9.30;99.90;;;;;;4974770;28;20125;-80
2022/05/13 05:06:07;;;;;;;2.03;0.75;;;9.40;99.90;;;;;;4957537;28;20026;-80
2022/05/13 05:08:32;;;;;;;3.95;2.17;;;9.50;99.90;;;;;;4970278;28;20015;-80
2022/05/13 05:10:59;;;;;;;2.17;1.08;;;9.60;99.90;;;;;;4974472;28;20411;-81
2022/05/13 05:13:33;;;;;;;4.90;1.48;;;9.70;99.90;;;;;;4956454;28;20368;-81
2022/05/13 05:15:59;;;;;;;1.15;1.00;;;9.80;99.90;;;;;;4961412;28;20054;-82
2022/05/13 05:18:25;;;;;;;1.75;0.73;;;10.00;99.90;;;;;;4956884;28;20030;-82
2022/05/13 05:20:51;;;;;;;5.80;1.30;;;10.10;99.90;;;;;;4974215;28;20023;-81
2022/05/13 05:23:27;;;;;;;1.20;1.02;;;10.30;99.90;;;;;;4974283;28;20510;-82
2022/05/13 05:25:54;;;;;;;4.95;1.08;;;10.40;99.90;;;;;;4956831;28;20022;-83
2022/05/13 05:28:19;;;;;;;5.43;1.00;;;10.50;99.90;;;;;;4957045;28;20033;-82
2022/05/13 05:30:46;;;;;;;1.25;0.85;;;10.60;99.90;;;;;;4957046;28;20035;-82
2022/05/13 05:33:11;;;;;;;2.22;0.80;;;10.70;99.90;;;;;;4956997;28;20034;-82
2022/05/13 05:35:38;;;;;;;2.70;0.80;;;10.70;99.90;;;;;;4957066;28;20026;-83
2022/05/13 06:37:37;;;;;;;1.00;0.55;;;13.50;99.90;;;;;;6101770;22;20005;-80
2022/05/13 06:40:04;;;;;;;2.90;0.90;;;13.60;99.90;;;;;;4952801;28;20042;-81
2022/05/13 06:42:30;;;;;;;5.55;1.05;;;13.60;99.90;;;;;;4954379;28;20020;-82
2022/05/13 06:44:56;;;;;;;2.00;0.70;;;13.70;99.90;;;;;;4953896;28;20027;-80
2022/05/13 06:47:22;;;;;;;5.70;0.90;;;13.70;99.90;;;;;;4954458;28;20118;-81
2022/05/13 06:49:47;;;;;;;3.47;1.00;;;13.70;99.90;;;;;;4954136;28;20023;-80
2022/05/13 06:52:13;;;;;;;5.38;0.93;;;13.70;99.90;;;;;;4954354;28;20019;-81
2022/05/13 06:54:43;;;;;;;3.42;1.10;;;13.70;99.90;;;;;;4954300;28;20034;-78
2022/05/13 06:57:10;;;;;;;4.97;0.90;;;13.80;99.90;;;;;;4954275;28;20016;-77
2022/05/13 06:59:36;;;;;;;0.50;0.50;;;13.90;99.90;;;;;;4953999;28;20082;-77
2022/05/13 07:02:01;;;;;;;2.90;1.00;;;13.90;99.90;;;;;;4953903;28;20098;-79
2022/05/13 07:04:27;;;;;;;2.92;1.02;;;13.90;99.90;;;;;;4954233;28;20130;-79
2022/05/13 07:06:53;;;;;;;5.75;1.00;;;14.00;99.90;;;;;;4953896;28;20027;-78
2022/05/13 07:09:18;;;;;;;2.67;1.00;;;14.20;99.90;;;;;;4952846;28;20109;-79
2022/05/13 07:11:44;;;;;;;2.92;0.60;;;14.30;99.90;;;;;;4953228;28;20019;-80
2022/05/13 07:14:11;;;;;;;2.38;0.77;;;14.40;99.90;;;;;;4953835;28;20027;-80
2022/05/13 07:16:37;;;;;;;4.97;1.00;;;14.50;99.90;;;;;;4953659;28;20241;-81
2022/05/13 07:19:03;;;;;;;4.80;1.35;;;14.50;99.90;;;;;;4953327;28;20026;-79
2022/05/13 07:21:29;;;;;;;3.58;0.90;;;14.50;99.90;;;;;;4953174;28;20023;-81
2022/05/13 07:23:54;;;;;;;2.70;0.60;;;14.60;99.90;;;;;;4953171;28;20027;-80
2022/05/13 07:26:20;;;;;;;2.65;1.00;;;14.80;99.90;;;;;;4953724;28;20432;-81
2022/05/13 07:28:46;;;;;;;2.25;1.15;;;14.80;99.90;;;;;;4953264;28;20030;-81
2022/05/13 07:31:11;;;;;;;2.05;1.05;;;15.00;99.90;;;;;;4952802;28;20467;-80
2022/05/13 07:33:37;;;;;;;1.05;0.82;;;15.10;99.90;;;;;;4953004;28;20388;-81
2022/05/13 07:36:04;;;;;;;2.75;0.82;;;15.20;99.90;;;;;;4953224;28;20510;-81
2022/05/13 07:38:31;;;;;;;5.20;1.33;;;15.30;99.90;;;;;;4952983;28;20023;-80
2022/05/13 07:41:16;;;;;;;4.57;1.08;;;15.40;99.90;;;;;;4953280;28;20376;-80
2022/05/13 07:43:43;;;;;;;2.35;0.93;;;15.30;99.90;;;;;;4952706;28;20027;-81
2022/05/13 07:46:09;;;;;;;0.63;0.52;;;15.50;99.90;;;;;;4952724;28;20396;-80
2022/05/13 07:48:37;;;;;;;1.65;0.70;;;15.50;99.90;;;;;;4952739;28;20019;-80
2022/05/13 07:51:02;;;;;;;2.53;0.93;;;15.60;99.90;;;;;;4953243;28;20027;-80
2022/05/13 07:53:28;;;;;;;6.70;1.17;;;15.70;99.90;;;;;;4952937;28;20038;-81
2022/05/13 07:55:54;;;;;;;5.78;1.20;;;15.70;99.90;;;;;;4953145;28;20043;-81
2022/05/13 07:58:21;;;;;;;1.90;0.93;;;15.70;99.90;;;;;;4951658;28;20070;-80
2022/05/13 08:00:46;;;;;;;5.53;1.13;;;15.70;99.90;;;;;;4952555;28;20027;-79
2022/05/13 08:03:15;;;;;;;4.60;1.50;;;15.90;99.90;;;;;;4952875;28;20476;-80
2022/05/13 08:05:50;;;;;;;5.88;1.30;;;16.00;99.90;;;;;;4953216;28;20078;-80
2022/05/13 08:08:22;;;;;;;1.70;0.80;;;16.10;99.90;;;;;;4976610;23;20039;-81
2022/05/13 08:10:51;;;;;;;4.55;1.63;;;15.80;99.90;;;;;;4961574;28;20074;-81
2022/05/13 08:13:18;;;;;;;7.32;0.95;;;15.80;99.90;;;;;;4965837;28;20114;-81
2022/05/13 08:15:44;;;;;;;2.25;1.10;;;15.80;99.90;;;;;;4972325;28;20030;-82
2022/05/13 08:18:10;;;;;;;4.43;0.77;;;16.10;99.90;;;;;;4972081;28;20436;-80
2022/05/13 08:20:36;;;;;;;9.05;1.17;;;16.30;99.90;;;;;;4974729;28;20084;-80
2022/05/13 08:23:02;;;;;;;3.25;0.95;;;16.50;98.50;;;;;;4975342;28;20085;-81
2022/05/13 08:25:28;;;;;;;5.13;1.55;;;16.40;99.10;;;;;;4974844;28;20058;-81
2022/05/13 08:27:54;;;;;;;3.25;1.20;;;16.70;99.60;;;;;;4974567;28;20023;-80
2022/05/13 08:30:20;;;;;;;4.07;1.30;;;17.00;99.70;;;;;;4974491;28;20515;-81
2022/05/13 08:32:46;;;;;;;1.58;1.00;;;16.90;99.20;;;;;;4954144;28;20030;-81
2022/05/13 08:35:14;;;;;;;5.60;1.15;;;17.20;98.30;;;;;;4975503;28;20031;-82
2022/05/13 08:37:59;;;;;;;6.30;1.48;;;17.10;99.40;;;;;;4974855;28;20067;-81
2022/05/13 08:40:58;;;;;;;3.22;0.90;;;17.00;99.90;;;;;;4962134;28;20027;-81
2022/05/13 08:43:37;;;;;;;6.93;1.10;;;17.10;99.90;;;;;;4962517;28;20027;-81
2022/05/13 08:46:35;;;;;;;3.80;1.17;;;17.00;99.80;;;;;;4974547;28;20384;-80
2022/05/13 08:49:38;;;;;;;3.40;1.20;;;17.00;99.90;;;;;;4975190;28;20030;-82
2022/05/13 08:55:09;;;;;;;11.68;1.08;;;16.60;99.90;;;;;;4973968;28;20072;-81
2022/05/13 08:57:40;;;;;;;4.32;0.80;;;17.00;99.90;;;;;;4961779;28;20473;-79
2022/05/13 09:00:34;;;;;;;3.20;0.90;;;17.00;99.90;;;;;;4974632;28;20030;-81
2022/05/13 09:03:24;;;;;;;7.30;1.00;;;16.60;99.90;;;;;;4948164;28;20090;-81
2022/05/13 09:06:02;;;;;;;4.40;1.27;;;16.30;99.90;;;;;;4973708;28;20034;-84
2022/05/13 09:08:29;;;;;;;8.90;1.20;;;16.50;99.90;;;;;;4989100;23;20035;-78
2022/05/13 09:11:16;;;;;;;7.43;1.13;;;16.80;99.90;;;;;;4994062;28;20061;-80
2022/05/13 09:13:49;;;;;;;3.40;0.88;;;17.40;99.90;;;;;;4994412;28;20026;-81
2022/05/13 09:16:22;;;;;;;6.82;1.08;;;17.60;99.90;;;;;;4977335;28;20026;-80
2022/05/13 09:19:01;;;;;;;7.78;1.00;;;17.30;99.60;;;;;;4990040;28;20547;-79
2022/05/13 09:21:27;;;;;;;6.38;1.40;;;17.10;99.90;;;;;;4975217;28;20019;-79
2022/05/13 09:23:53;;;;;;;6.38;1.10;;;17.30;99.90;;;;;;4981333;28;20160;-80
2022/05/13 09:26:26;;;;;;;2.03;1.08;;;17.50;99.60;;;;;;4958033;28;20053;-80
2022/05/13 09:29:11;;;;;;;4.18;1.02;;;17.50;99.40;;;;;;4968679;28;20026;-79
2022/05/13 09:31:43;;;;;;;2.13;1.15;;;17.50;99.80;;;;;;4966168;28;20029;-80
2022/05/13 09:34:35;;;;;;;4.50;0.95;;;17.60;99.50;;;;;;4957987;28;20027;-80
2022/05/13 09:37:23;;;;;;;2.33;1.20;;;17.80;99.90;;;;;;4967472;28;20050;-80
2022/05/13 09:40:04;;;;;;;7.00;0.98;;;18.00;99.00;;;;;;4966640;28;20025;-80
2022/05/13 09:42:39;;;;;;;9.38;1.52;;;17.80;98.70;;;;;;4968917;28;20031;-79
2022/05/13 09:45:21;;;;;;;7.97;1.00;;;17.70;98.80;;;;;;4975067;28;20039;-80
2022/05/13 09:48:12;;;;;;;2.05;1.05;;;18.10;99.10;;;;;;4975229;28;20109;-79
2022/05/13 09:50:42;;;;;;;7.63;1.92;;;19.20;97.80;;;;;;4968257;28;20023;-80
2022/05/13 09:53:20;;;;;;;4.03;1.00;;;19.80;96.20;;;;;;4975005;28;20038;-80
2022/05/13 09:55:47;;;;;;;3.10;0.80;;;20.00;94.00;;;;;;4974879;28;20116;-80
2022/05/13 09:58:19;;;;;;;4.38;1.00;;;20.50;92.50;;;;;;4974072;28;20165;-80
2022/05/13 10:00:48;;;;;;;5.22;1.15;;;20.00;90.90;;;;;;4951534;28;20023;-81
2022/05/13 10:03:21;;;;;;;4.13;1.33;;;20.00;92.20;;;;;;4974731;28;20086;-79
2022/05/13 10:06:02;;;;;;;4.53;1.38;;;19.90;90.50;;;;;;4974613;28;20026;-81
2022/05/13 10:08:28;;;;;;;2.75;0.80;;;20.60;88.90;;;;;;4991772;22;20046;-83
2022/05/13 10:14:07;;;;;;;2.63;0.75;;;21.40;85.50;;;;;;4955399;28;20571;-83
2022/05/13 10:16:45;;;;;;;2.92;1.10;;;21.10;80.10;;;;;;4955400;28;20042;-82
2022/05/13 10:19:41;;;;;;;5.32;1.02;;;20.70;81.80;;;;;;4954510;28;20034;-80
2022/05/13 10:22:17;;;;;;;6.45;0.90;;;20.60;79.30;;;;;;4948323;28;20041;-80
2022/05/13 10:24:55;;;;;;;2.90;0.90;;;20.10;84.60;;;;;;4936070;28;20028;-81
2022/05/13 10:27:37;;;;;;;3.55;0.98;;;20.50;81.20;;;;;;4954039;28;20019;-80
2022/05/13 10:30:07;;;;;;;;;;;20.70;83.70;;;;;;4937086;29;20016;-80
2022/05/13 10:32:56;;;;;;;5.90;1.38;;;21.00;82.70;;;;;;4954213;28;20359;-81
2022/05/13 10:35:26;;;;;;;3.90;0.70;;;20.70;81.40;;;;;;4922262;28;20039;-81
2022/05/13 10:37:58;;;;;;;4.18;0.98;;;21.20;74.80;;;;;;4953916;28;20024;-83
2022/05/13 10:40:25;;;;;;;3.00;0.70;;;21.10;76.50;;;;;;4950201;28;20024;-81
2022/05/13 10:43:15;;;;;;;7.00;1.33;;;21.70;74.70;;;;;;4953043;28;20023;-82
2022/05/13 10:45:42;;;;;;;7.32;0.82;;;22.10;75.50;;;;;;4953528;28;20020;-81
2022/05/13 10:48:25;;;;;;;3.58;0.70;;;22.00;72.50;;;;;;4953574;29;20020;-81
2022/05/13 10:51:03;;;;;;;6.32;0.90;;;22.10;73.90;;;;;;4943008;28;20078;-80
2022/05/13 10:53:44;;;;;;;4.60;1.08;;;22.20;73.80;;;;;;4941300;29;20038;-80
2022/05/13 10:56:19;;;;;;;6.00;0.80;;;22.00;72.30;;;;;;4940521;28;20109;-81
2022/05/13 10:59:07;;;;;;;3.67;0.90;;;22.40;73.80;;;;;;4953201;29;20011;-82
2022/05/13 11:01:59;;;;;;;6.35;1.15;;;23.00;69.80;;;;;;4953702;28;20476;-83
2022/05/13 11:04:27;;;;;;;;;;;23.10;71.60;;;;;;4942256;28;20020;-80
2022/05/13 11:07:31;;;;;;;5.20;1.38;;;22.90;69.70;;;;;;4953171;28;19902;-80
2022/05/13 11:10:08;;;;;;;5.47;1.13;;;21.50;73.40;;;;;;4976945;23;20043;-81
2022/05/13 11:12:48;;;;;;;7.65;1.20;;;21.10;73.30;;;;;;4939839;28;20020;-80
2022/05/13 11:15:25;;;;;;;6.03;1.00;;;20.90;76.90;;;;;;4946427;28;20039;-80
2022/05/13 11:18:05;;;;;;;9.68;1.45;;;21.90;75.80;;;;;;4954390;28;20480;-81
2022/05/13 11:20:56;;;;;;;6.55;1.05;;;22.90;70.60;;;;;;4953139;28;20031;-81
2022/05/13 11:23:43;;;;;;;5.55;1.20;;;23.50;67.00;;;;;;4953230;28;20058;-81
2022/05/13 11:26:24;;;;;;;6.15;1.40;;;23.70;66.00;;;;;;4939959;28;20015;-81
2022/05/13 11:29:15;;;;;;;5.00;0.73;;;24.20;67.30;;;;;;4935961;28;20041;-80
2022/05/13 11:31:56;;;;;;;6.18;0.95;;;23.90;63.50;;;;;;4940759;28;20047;-80
2022/05/13 11:34:46;;;;;;;7.60;1.02;;;24.10;63.10;;;;;;4922888;29;20034;-81
2022/05/13 11:37:15;;;;;;;4.57;0.82;;;23.70;64.60;;;;;;4933968;29;20055;-81
2022/05/13 11:39:41;;;;;;;4.80;1.10;;;23.70;63.10;;;;;;4922131;28;20362;-81
2022/05/13 11:42:25;;;;;;;4.03;0.82;;;23.50;62.40;;;;;;4946042;29;20544;-80
2022/05/13 11:45:21;;;;;;;3.38;1.15;;;23.00;64.60;;;;;;4952012;28;20024;-81
2022/05/13 11:47:57;;;;;;;7.57;1.25;;;23.70;62.70;;;;;;4947789;29;20031;-81
2022/05/13 11:50:29;;;;;;;3.40;0.73;;;23.70;61.00;;;;;;4952309;29;20023;-82
2022/05/13 11:52:58;;;;;;;0.93;0.60;;;23.40;60.20;;;;;;4952459;28;20034;-80
2022/05/13 11:55:35;;;;;;;3.00;0.80;;;23.00;62.80;;;;;;4945969;28;20388;-81
2022/05/13 11:58:01;;;;;;;6.47;1.55;;;22.90;62.90;;;;;;4934630;29;20023;-80
2022/05/13 12:00:38;;;;;;;4.80;1.17;;;23.10;62.00;;;;;;4950704;29;20507;-82
2022/05/13 12:03:12;;;;;;;4.18;1.23;;;23.50;61.90;;;;;;4946820;28;20027;-82
2022/05/13 12:05:50;;;;;;;9.70;1.13;;;23.60;61.20;;;;;;4952071;28;20055;-80
2022/05/13 12:08:22;;;;;;;3.63;1.00;;;23.30;61.10;;;;;;4967284;23;20108;-83
2022/05/13 12:10:50;;;;;;;;;;;23.50;60.40;;;;;;4951923;28;20031;-84
2022/05/13 12:13:38;;;;;;;3.55;1.02;;;24.00;58.70;;;;;;4948703;28;19919;-81
2022/05/13 12:16:22;;;;;;;4.93;1.13;;;24.90;58.40;;;;;;4953225;28;20034;-82
2022/05/13 12:18:53;;;;;;;6.95;1.17;;;25.40;58.80;;;;;;4952892;28;20023;-81
2022/05/13 12:21:34;;;;;;;5.47;0.90;;;24.10;58.40;;;;;;4951434;28;20023;-82
2022/05/13 12:24:20;;;;;;;8.90;1.42;;;24.30;61.10;;;;;;4934443;29;20490;-81
2022/05/13 12:26:51;;;;;;;2.88;0.88;;;24.20;60.70;;;;;;4952329;28;20031;-80
2022/05/13 12:29:23;;;;;;;5.13;0.95;;;24.10;58.20;;;;;;4935086;28;20027;-81
2022/05/13 12:31:54;;;;;;;3.50;0.90;;;23.90;59.40;;;;;;4944842;28;20027;-81
2022/05/13 12:37:37;;;;;;;2.78;0.82;;;24.20;59.50;;;;;;4940683;28;20030;-81
2022/05/13 12:40:03;;;;;;;4.45;1.08;;;24.10;58.00;;;;;;4934762;29;20480;-81
2022/05/13 12:42:38;;;;;;;2.67;0.70;;;25.20;55.50;;;;;;4952190;28;20054;-80
2022/05/13 12:45:08;;;;;;;4.15;0.90;;;23.90;56.00;;;;;;4944736;29;20038;-80
2022/05/13 12:48:08;;;;;;;5.45;1.00;;;23.10;58.00;;;;;;4949556;28;20433;-80
2022/05/13 12:51:07;;;;;;;2.45;1.00;;;23.50;59.90;;;;;;4945338;28;20035;-81
2022/05/13 12:53:45;;;;;;;4.90;0.60;;;25.90;54.90;;;;;;4936779;28;20039;-80
2022/05/13 12:56:15;;;;;;;2.42;0.70;;;26.20;51.40;;;;;;4950702;28;20102;-79
2022/05/13 12:58:44;;;;;;;2.13;0.75;;;26.90;51.10;;;;;;4945955;28;20026;-80
2022/05/13 13:01:12;;;;;;;1.63;0.60;;;27.00;51.40;;;;;;4945356;28;20031;-82
2022/05/13 13:03:40;;;;;;;4.60;0.80;;;26.80;48.30;;;;;;4951782;28;20019;-82
2022/05/13 13:06:13;;;;;;;5.15;0.95;;;27.00;48.30;;;;;;4951664;28;20594;-81
2022/05/13 13:08:40;;;;;;;3.13;0.77;;;27.20;49.90;;;;;;4969514;23;20054;-80
2022/05/13 13:11:32;;;;;;;6.03;1.73;;;27.40;49.40;;;;;;4976375;28;20499;-81
2022/05/13 13:14:39;;;;;;;2.03;0.55;;;27.30;48.20;;;;;;4994724;28;20061;-80
2022/05/13 13:17:19;;;;;;;5.07;1.00;;;25.30;52.20;;;;;;5001371;28;20102;-80
2022/05/13 13:19:48;;;;;;;5.13;0.98;;;25.10;54.90;;;;;;4972663;28;20049;-79
2022/05/13 13:22:20;;;;;;;4.57;0.93;;;24.40;54.80;;;;;;4993213;28;20018;-80
2022/05/13 13:24:46;;;;;;;7.13;1.13;;;24.40;56.40;;;;;;4993484;28;20032;-80
2022/05/13 13:27:17;;;;;;;3.03;0.60;;;23.90;57.10;;;;;;4993749;28;20026;-81
2022/05/13 13:29:45;;;;;;;4.47;1.27;;;24.10;59.10;;;;;;4993424;28;20078;-81
2022/05/13 13:32:21;;;;;;;3.75;0.82;;;25.30;57.80;;;;;;4983798;28;20035;-79
2022/05/13 13:34:54;;;;;;;4.95;1.13;;;26.60;52.00;;;;;;4975748;28;20043;-80
2022/05/13 13:37:26;;;;;;;5.00;1.15;;;26.30;52.30;;;;;;4965492;28;20382;-80
2022/05/13 13:39:52;;;;;;;4.90;0.90;;;26.10;53.40;;;;;;4993778;28;20486;-80
2022/05/13 13:42:20;;;;;;;6.13;0.90;;;26.20;51.60;;;;;;4990633;28;20119;-80
2022/05/13 13:44:47;;;;;;;4.15;0.60;;;25.60;54.40;;;;;;4981940;28;20038;-79
2022/05/13 13:47:25;;;;;;;6.68;0.88;;;25.30;52.30;;;;;;4969888;28;20475;-81
2022/05/13 13:49:51;;;;;;;3.83;0.90;;;24.90;54.80;;;;;;4973897;28;20031;-80
2022/05/13 13:52:24;;;;;;;3.67;0.90;;;25.80;55.30;;;;;;4969700;28;20039;-81
2022/05/13 13:54:57;;;;;;;2.90;0.98;;;25.30;53.40;;;;;;4949421;28;20027;-80
2022/05/13 13:57:33;;;;;;;3.70;0.60;;;25.60;52.10;;;;;;4968673;28;20022;-80
2022/05/13 14:00:11;;;;;;;2.53;0.60;;;25.00;52.70;;;;;;4980406;28;20022;-80
2022/05/13 14:02:46;;;;;;;4.18;0.95;;;25.00;52.40;;;;;;4993084;28;20018;-80
2022/05/13 14:05:22;;;;;;;3.40;0.85;;;24.20;54.90;;;;;;4992622;28;20031;-79
2022/05/13 14:10:37;;;;;;;7.13;0.88;;;22.90;57.90;;;;;;4954587;28;20488;-74
2022/05/13 14:13:06;;;;;;;4.60;1.23;;;23.20;60.60;;;;;;4954981;28;20420;-75
2022/05/13 14:15:38;;;;;;;9.95;1.40;;;23.20;60.80;;;;;;4955080;28;20019;-76
2022/05/13 14:18:07;;;;;;;6.20;1.48;;;23.00;60.20;;;;;;4954888;28;20019;-75
2022/05/13 14:20:38;;;;;;;9.55;1.85;;;22.00;63.20;;;;;;4955472;28;20018;-75
2022/05/13 14:23:06;;;;;;;6.03;1.25;;;21.10;66.50;;;;;;4938133;28;20027;-74
2022/05/13 14:25:56;;;;;;;7.22;1.02;;;21.10;69.20;;;;;;4955064;28;20038;-74
2022/05/13 14:28:30;;;;;;;7.38;1.42;;;21.00;69.30;;;;;;4937139;29;20019;-75
2022/05/13 14:31:06;;;;;;;7.32;1.20;;;20.60;69.50;;;;;;4954812;28;20045;-75
2022/05/13 14:33:37;;;;;;;6.55;1.08;;;19.90;71.30;;;;;;4961142;28;20082;-74
2022/05/13 14:36:08;;;;;;;7.60;1.20;;;19.50;74.50;;;;;;4954499;28;20107;-75
2022/05/13 14:42:01;;;;;;;8.98;1.63;;;18.90;82.00;;;;;;4954710;28;20043;-75
2022/05/13 14:44:35;;;;;;;5.43;1.08;;;19.70;81.20;;;;;;4961324;28;20027;-75
2022/05/13 14:47:04;;;;;;;5.28;1.17;;;20.70;78.20;;;;;;4937159;29;20027;-74
2022/05/13 14:50:00;;;;;;;5.05;1.20;;;21.80;72.80;;;;;;4954311;28;20032;-75
2022/05/13 14:52:49;;;;;;;4.22;1.33;;;22.70;70.30;;;;;;4938865;28;20034;-75
2022/05/13 14:55:33;;;;;;;5.53;1.00;;;23.40;65.60;;;;;;4954416;28;20114;-74
2022/05/13 14:58:00;;;;;;;2.95;1.15;;;24.30;66.40;;;;;;4951263;28;20118;-77
2022/05/13 15:00:31;;;;;;;6.45;0.98;;;24.90;61.90;;;;;;4942953;28;20067;-78
2022/05/13 15:03:02;;;;;;;13.60;1.02;;;25.20;58.10;;;;;;4942773;28;20031;-78
2022/05/13 15:05:44;;;;;;;3.83;1.50;;;24.50;59.00;;;;;;4953139;28;19957;-77
2022/05/13 15:08:34;;;;;;;3.55;0.98;;;24.90;60.80;;;;;;4969699;23;20117;-84
2022/05/13 15:11:00;;;;;;;3.53;0.80;;;25.50;59.40;;;;;;4983807;28;20038;-82
2022/05/13 15:13:27;;;;;;;6.78;1.25;;;24.80;57.30;;;;;;4989122;28;20036;-82
2022/05/13 15:15:53;;;;;;;7.50;1.35;;;24.00;59.80;;;;;;4989152;28;20058;-83
2022/05/13 15:18:24;;;;;;;4.32;1.00;;;23.60;63.10;;;;;;4990206;28;20364;-81
2022/05/13 15:20:51;;;;;;;7.50;1.48;;;23.80;61.20;;;;;;4992331;28;20087;-81
2022/05/13 15:23:17;;;;;;;3.45;1.45;;;24.20;63.30;;;;;;4992268;28;20399;-82
2022/05/13 15:25:47;;;;;;;8.23;1.48;;;24.60;62.00;;;;;;4992404;28;20026;-80
2022/05/13 15:28:15;;;;;;;3.85;1.42;;;23.20;63.30;;;;;;4992586;28;20037;-81
2022/05/13 15:30:42;;;;;;;4.53;0.85;;;22.60;64.70;;;;;;4992162;28;20014;-81
2022/05/13 15:33:08;;;;;;;6.63;1.90;;;21.40;69.50;;;;;;4992734;28;20077;-81
2022/05/13 15:35:34;;;;;;;5.20;1.40;;;21.10;71.30;;;;;;4992416;28;20490;-81
2022/05/13 15:38:00;;;;;;;3.95;1.23;;;20.30;74.00;;;;;;4992032;28;20027;-80
2022/05/13 15:40:26;;;;;;;5.22;1.30;;;20.60;74.70;;;;;;4992122;28;20057;-80
2022/05/13 15:42:56;;;;;;;5.60;1.17;;;20.00;75.10;;;;;;4971766;28;20531;-80
2022/05/13 15:45:22;;;;;;;6.68;2.58;;;19.40;78.90;;;;;;4992228;28;20469;-81
2022/05/13 15:47:52;;;;;;;3.53;1.67;;;19.10;82.80;;;;;;4992110;28;20105;-81
2022/05/13 15:53:03;;;;;;;5.53;1.92;;;18.30;87.40;;;;;;4992363;28;20176;-80
2022/05/13 15:55:33;;;;;;;4.65;1.25;;;17.50;91.20;;;;;;4974453;28;20497;-81
2022/05/13 15:58:11;;;;;;;4.00;1.17;;;17.30;93.10;;;;;;4974420;28;20396;-83
2022/05/13 16:00:41;;;;;;;7.53;1.23;;;17.70;94.40;;;;;;4991358;28;20485;-81
2022/05/13 16:03:07;;;;;;;6.22;1.60;;;18.20;93.30;;;;;;4992200;28;20019;-82
2022/05/13 16:05:36;;;;;;;5.15;1.35;;;18.40;93.40;;;;;;4974658;28;20451;-80
2022/05/13 16:10:37;;;;;;;6.80;1.60;;;18.60;90.20;;;;;;4981364;28;20045;-83
2022/05/13 16:13:13;;;;;;;7.95;1.15;;;18.40;91.00;;;;;;4991904;28;20018;-82
2022/05/13 16:15:43;;;;;;;5.20;1.23;;;18.40;91.40;;;;;;4991821;28;20050;-82
2022/05/13 16:18:14;;;;;;;10.77;1.60;;;18.30;91.70;;;;;;4990376;28;20159;-86
2022/05/13 16:20:41;;;;;;;3.53;1.13;;;18.40;91.50;;;;;;4972862;28;20050;-83
2022/05/13 16:23:07;;;;;;;4.85;0.95;;;18.30;92.00;;;;;;4972723;28;20272;-83
2022/05/13 16:25:33;;;;;;;7.82;1.38;;;17.90;92.60;;;;;;4972462;28;20073;-82
2022/05/13 16:28:04;;;;;;;3.75;0.95;;;17.70;93.10;;;;;;4972536;28;20031;-83
2022/05/13 16:30:30;;;;;;;4.68;1.25;;;17.70;93.30;;;;;;4955171;28;20501;-82
2022/05/13 16:32:56;;;;;;;5.22;1.42;;;17.70;94.40;;;;;;4972897;28;20106;-83
2022/05/13 16:35:21;;;;;;;2.22;0.88;;;17.70;93.60;;;;;;4972657;28;20107;-82
2022/05/13 16:37:47;;;;;;;1.90;0.85;;;17.60;94.00;;;;;;4972674;28;20011;-83
2022/05/13 16:40:19;;;;;;;5.57;1.63;;;17.60;94.50;;;;;;4955665;28;20031;-84
2022/05/13 16:42:45;;;;;;;2.55;0.95;;;17.40;94.40;;;;;;4976784;28;20014;-83
2022/05/13 16:45:13;;;;;;;1.33;1.00;;;17.20;95.90;;;;;;4976418;28;20409;-84
2022/05/13 16:47:39;;;;;;;4.82;0.90;;;17.20;96.40;;;;;;4976584;28;20027;-82
2022/05/13 16:50:07;;;;;;;5.68;1.40;;;17.10;97.40;;;;;;4975974;28;20027;-82
2022/05/13 16:52:32;;;;;;;3.33;1.17;;;17.30;98.20;;;;;;4982822;28;20025;-83
2022/05/13 16:54:58;;;;;;;5.25;1.33;;;17.30;97.90;;;;;;4958496;28;20034;-81
2022/05/13 16:57:25;;;;;;;6.38;1.55;;;17.30;98.00;;;;;;4975623;28;20471;-81
2022/05/13 16:59:51;;;;;;;8.60;1.30;;;17.10;98.40;;;;;;4975839;28;20480;-81
2022/05/13 17:02:17;;;;;;;5.95;1.35;;;17.10;98.60;;;;;;4976106;28;20030;-82
2022/05/13 17:04:43;;;;;;;6.68;1.08;;;17.00;98.20;;;;;;4975827;28;20553;-81
2022/05/13 17:07:09;;;;;;;5.97;0.95;;;17.00;99.70;;;;;;4975437;28;20097;-82
2022/05/13 17:17:50;;;;;;;4.82;1.20;;;16.50;99.90;;;;;;4956214;28;20081;-81
2022/05/13 17:20:16;;;;;;;4.15;1.27;;;16.20;99.90;;;;;;4955949;28;20471;-80
2022/05/13 17:22:41;;;;;;;4.30;1.52;;;16.20;99.90;;;;;;4939141;29;20026;-82